sensor_id;sensor_type;location;lat;lon;timestamp;pressure;altitude;pressure_sealevel;temperature;humidity
74403;BME280;62837;51.082;13.744;2022-12-24T00:01:11;99075.63;;;9.40;86.43
74403;BME280;62837;51.082;13.744;2022-12-24T00:03:41;99074.80;;;9.41;86.47
74403;BME280;62837;51.082;13.744;2022-12-24T00:06:16;99072.59;;;9.43;86.37
74403;BME280;62837;51.082;13.744;2022-12-24T00:08:48;99071.75;;;9.47;86.42
74403;BME280;62837;51.082;13.744;2022-12-24T00:11:20;99081.11;;;9.50;85.84
74403;BME280;62837;51.082;13.744;2022-12-24T00:13:51;99085.92;;;9.54;85.78
74403;BME280;62837;51.082;13.744;2022-12-24T00:16:21;99090.34;;;9.58;85.37
74403;BME280;62837;51.082;13.744;2022-12-24T00:18:52;99105.96;;;9.63;85.16
74403;BME280;62837;51.082;13.744;2022-12-24T00:21:23;99104.23;;;9.68;85.00
74403;BME280;62837;51.082;13.744;2022-12-24T00:23:54;99100.61;;;9.73;84.84
74403;BME280;62837;51.082;13.744;2022-12-24T00:26:24;99100.89;;;9.75;84.56
74403;BME280;62837;51.082;13.744;2022-12-24T00:28:55;99100.70;;;9.78;84.41
74403;BME280;62837;51.082;13.744;2022-12-24T00:31:26;99112.10;;;9.80;84.31
74403;BME280;62837;51.082;13.744;2022-12-24T00:33:57;99116.38;;;9.81;84.10
74403;BME280;62837;51.082;13.744;2022-12-24T00:36:28;99117.46;;;9.81;83.87
74403;BME280;62837;51.082;13.744;2022-12-24T00:38:59;99107.04;;;9.81;84.13
74403;BME280;62837;51.082;13.744;2022-12-24T00:41:29;99103.38;;;9.80;84.10
74403;BME280;62837;51.082;13.744;2022-12-24T00:44:02;99107.55;;;9.78;84.51
74403;BME280;62837;51.082;13.744;2022-12-24T00:46:35;99104.98;;;9.78;84.44
74403;BME280;62837;51.082;13.744;2022-12-24T00:49:06;99102.90;;;9.76;84.17
74403;BME280;62837;51.082;13.744;2022-12-24T00:51:38;99115.33;;;9.73;84.32
74403;BME280;62837;51.082;13.744;2022-12-24T00:54:09;99116.90;;;9.71;84.27
74403;BME280;62837;51.082;13.744;2022-12-24T00:56:40;99123.66;;;9.68;84.38
74403;BME280;62837;51.082;13.744;2022-12-24T00:59:10;99129.34;;;9.66;84.35
74403;BME280;62837;51.082;13.744;2022-12-24T01:01:41;99131.54;;;9.63;84.35
74403;BME280;62837;51.082;13.744;2022-12-24T01:04:12;99134.14;;;9.60;84.38
74403;BME280;62837;51.082;13.744;2022-12-24T01:07:01;99143.03;;;9.57;84.36
74403;BME280;62837;51.082;13.744;2022-12-24T01:09:31;99147.13;;;9.56;84.15
74403;BME280;62837;51.082;13.744;2022-12-24T01:12:02;99148.38;;;9.55;84.10
74403;BME280;62837;51.082;13.744;2022-12-24T01:14:33;99152.23;;;9.55;84.03
74403;BME280;62837;51.082;13.744;2022-12-24T01:17:04;99155.58;;;9.56;83.56
74403;BME280;62837;51.082;13.744;2022-12-24T01:19:35;99161.88;;;9.56;83.51
74403;BME280;62837;51.082;13.744;2022-12-24T01:22:06;99166.24;;;9.57;83.30
74403;BME280;62837;51.082;13.744;2022-12-24T01:24:36;99167.45;;;9.60;83.26
74403;BME280;62837;51.082;13.744;2022-12-24T01:27:07;99169.92;;;9.61;83.06
74403;BME280;62837;51.082;13.744;2022-12-24T01:29:38;99181.80;;;9.62;82.99
74403;BME280;62837;51.082;13.744;2022-12-24T01:32:09;99179.67;;;9.63;82.76
74403;BME280;62837;51.082;13.744;2022-12-24T01:34:40;99173.52;;;9.64;82.60
74403;BME280;62837;51.082;13.744;2022-12-24T01:37:10;99173.24;;;9.65;82.36
74403;BME280;62837;51.082;13.744;2022-12-24T01:39:41;99181.92;;;9.66;82.43
74403;BME280;62837;51.082;13.744;2022-12-24T01:42:22;99185.27;;;9.65;82.13
74403;BME280;62837;51.082;13.744;2022-12-24T01:45:42;99190.85;;;9.67;81.83
74403;BME280;62837;51.082;13.744;2022-12-24T01:48:21;99196.16;;;9.68;82.02
74403;BME280;62837;51.082;13.744;2022-12-24T01:50:55;99197.59;;;9.69;81.79
74403;BME280;62837;51.082;13.744;2022-12-24T01:53:28;99204.84;;;9.68;81.70
74403;BME280;62837;51.082;13.744;2022-12-24T01:55:59;99208.96;;;9.68;81.77
74403;BME280;62837;51.082;13.744;2022-12-24T01:58:31;99214.77;;;9.68;81.91
74403;BME280;62837;51.082;13.744;2022-12-24T02:01:02;99212.09;;;9.67;81.84
74403;BME280;62837;51.082;13.744;2022-12-24T02:03:33;99219.27;;;9.68;81.50
74403;BME280;62837;51.082;13.744;2022-12-24T02:06:04;99223.13;;;9.68;81.43
74403;BME280;62837;51.082;13.744;2022-12-24T02:08:37;99220.75;;;9.69;81.38
74403;BME280;62837;51.082;13.744;2022-12-24T02:11:13;99219.02;;;9.71;81.34
74403;BME280;62837;51.082;13.744;2022-12-24T02:13:49;99217.50;;;9.72;81.46
74403;BME280;62837;51.082;13.744;2022-12-24T02:16:31;99223.23;;;9.71;81.55
74403;BME280;62837;51.082;13.744;2022-12-24T02:19:26;99223.12;;;9.70;81.67
74403;BME280;62837;51.082;13.744;2022-12-24T02:22:05;99230.70;;;9.69;81.64
74403;BME280;62837;51.082;13.744;2022-12-24T02:25:00;99236.19;;;9.67;81.73
74403;BME280;62837;51.082;13.744;2022-12-24T02:27:43;99240.48;;;9.65;81.65
74403;BME280;62837;51.082;13.744;2022-12-24T02:30:20;99240.60;;;9.64;81.58
74403;BME280;62837;51.082;13.744;2022-12-24T02:33:14;99243.73;;;9.63;81.54
74403;BME280;62837;51.082;13.744;2022-12-24T02:35:51;99247.58;;;9.62;81.20
74403;BME280;62837;51.082;13.744;2022-12-24T02:38:27;99255.04;;;9.62;81.22
74403;BME280;62837;51.082;13.744;2022-12-24T02:41:02;99258.05;;;9.63;81.09
74403;BME280;62837;51.082;13.744;2022-12-24T02:43:38;99265.73;;;9.65;80.69
74403;BME280;62837;51.082;13.744;2022-12-24T02:46:14;99272.14;;;9.68;80.48
74403;BME280;62837;51.082;13.744;2022-12-24T02:48:48;99281.02;;;9.72;80.46
74403;BME280;62837;51.082;13.744;2022-12-24T02:51:20;99281.23;;;9.74;80.64
74403;BME280;62837;51.082;13.744;2022-12-24T02:53:51;99284.75;;;9.75;80.54
74403;BME280;62837;51.082;13.744;2022-12-24T02:56:37;99283.04;;;9.75;81.11
74403;BME280;62837;51.082;13.744;2022-12-24T02:59:43;99284.91;;;9.74;81.21
74403;BME280;62837;51.082;13.744;2022-12-24T03:02:25;99289.21;;;9.71;81.56
74403;BME280;62837;51.082;13.744;2022-12-24T03:05:06;99295.03;;;9.69;81.54
74403;BME280;62837;51.082;13.744;2022-12-24T03:07:46;99297.50;;;9.68;81.51
74403;BME280;62837;51.082;13.744;2022-12-24T03:10:26;99302.73;;;9.66;81.68
74403;BME280;62837;51.082;13.744;2022-12-24T03:13:01;99310.37;;;9.66;81.58
74403;BME280;62837;51.082;13.744;2022-12-24T03:15:34;99314.21;;;9.65;81.68
74403;BME280;62837;51.082;13.744;2022-12-24T03:18:09;99323.87;;;9.65;81.98
74403;BME280;62837;51.082;13.744;2022-12-24T03:20:44;99328.86;;;9.62;82.08
74403;BME280;62837;51.082;13.744;2022-12-24T03:23:16;99328.66;;;9.60;82.47
74403;BME280;62837;51.082;13.744;2022-12-24T03:25:46;99325.05;;;9.56;82.60
74403;BME280;62837;51.082;13.744;2022-12-24T03:28:19;99324.17;;;9.54;82.86
74403;BME280;62837;51.082;13.744;2022-12-24T03:30:54;99322.58;;;9.52;82.90
74403;BME280;62837;51.082;13.744;2022-12-24T03:33:25;99323.04;;;9.50;82.80
74403;BME280;62837;51.082;13.744;2022-12-24T03:35:56;99319.63;;;9.49;82.69
74403;BME280;62837;51.082;13.744;2022-12-24T03:38:26;99324.19;;;9.48;82.73
74403;BME280;62837;51.082;13.744;2022-12-24T03:40:57;99325.73;;;9.48;82.81
74403;BME280;62837;51.082;13.744;2022-12-24T03:43:28;99331.42;;;9.48;82.69
74403;BME280;62837;51.082;13.744;2022-12-24T03:46:01;99331.70;;;9.49;82.98
74403;BME280;62837;51.082;13.744;2022-12-24T03:48:33;99332.86;;;9.49;82.82
74403;BME280;62837;51.082;13.744;2022-12-24T03:51:13;99333.13;;;9.49;82.66
74403;BME280;62837;51.082;13.744;2022-12-24T03:53:46;99330.77;;;9.49;82.57
74403;BME280;62837;51.082;13.744;2022-12-24T03:56:17;99340.88;;;9.50;82.33
74403;BME280;62837;51.082;13.744;2022-12-24T03:58:48;99342.67;;;9.51;82.38
74403;BME280;62837;51.082;13.744;2022-12-24T04:01:19;99343.80;;;9.51;82.38
74403;BME280;62837;51.082;13.744;2022-12-24T04:03:50;99342.34;;;9.52;82.04
74403;BME280;62837;51.082;13.744;2022-12-24T04:06:21;99346.06;;;9.52;82.17
74403;BME280;62837;51.082;13.744;2022-12-24T04:08:51;99349.36;;;9.52;81.83
74403;BME280;62837;51.082;13.744;2022-12-24T04:11:22;99351.83;;;9.54;81.83
74403;BME280;62837;51.082;13.744;2022-12-24T04:13:53;99352.33;;;9.54;81.79
74403;BME280;62837;51.082;13.744;2022-12-24T04:16:23;99358.64;;;9.56;81.52
74403;BME280;62837;51.082;13.744;2022-12-24T04:18:55;99359.89;;;9.57;81.40
74403;BME280;62837;51.082;13.744;2022-12-24T04:21:25;99358.52;;;9.57;81.49
74403;BME280;62837;51.082;13.744;2022-12-24T04:23:56;99361.48;;;9.57;81.32
74403;BME280;62837;51.082;13.744;2022-12-24T04:26:27;99364.89;;;9.59;80.96
74403;BME280;62837;51.082;13.744;2022-12-24T04:28:57;99363.41;;;9.61;80.86
74403;BME280;62837;51.082;13.744;2022-12-24T04:31:28;99366.75;;;9.61;80.62
74403;BME280;62837;51.082;13.744;2022-12-24T04:33:59;99372.23;;;9.63;80.48
74403;BME280;62837;51.082;13.744;2022-12-24T04:36:30;99372.08;;;9.65;79.87
74403;BME280;62837;51.082;13.744;2022-12-24T04:39:01;99381.71;;;9.68;79.45
74403;BME280;62837;51.082;13.744;2022-12-24T04:41:32;99385.17;;;9.72;79.24
74403;BME280;62837;51.082;13.744;2022-12-24T04:44:02;99395.48;;;9.74;79.09
74403;BME280;62837;51.082;13.744;2022-12-24T04:46:33;99395.88;;;9.76;78.77
74403;BME280;62837;51.082;13.744;2022-12-24T04:49:05;99398.27;;;9.78;78.76
74403;BME280;62837;51.082;13.744;2022-12-24T04:51:35;99395.86;;;9.78;78.43
74403;BME280;62837;51.082;13.744;2022-12-24T04:54:06;99400.86;;;9.80;77.93
74403;BME280;62837;51.082;13.744;2022-12-24T04:56:37;99405.40;;;9.82;77.99
74403;BME280;62837;51.082;13.744;2022-12-24T04:59:08;99410.95;;;9.83;77.92
74403;BME280;62837;51.082;13.744;2022-12-24T05:01:39;99415.67;;;9.84;77.61
74403;BME280;62837;51.082;13.744;2022-12-24T05:04:10;99425.16;;;9.87;77.57
74403;BME280;62837;51.082;13.744;2022-12-24T05:06:41;99427.52;;;9.87;77.13
74403;BME280;62837;51.082;13.744;2022-12-24T05:09:11;99431.36;;;9.88;77.01
74403;BME280;62837;51.082;13.744;2022-12-24T05:11:42;99443.39;;;9.88;76.98
74403;BME280;62837;51.082;13.744;2022-12-24T05:14:13;99447.45;;;9.88;77.19
74403;BME280;62837;51.082;13.744;2022-12-24T05:16:43;99449.38;;;9.88;76.96
74403;BME280;62837;51.082;13.744;2022-12-24T05:19:14;99454.05;;;9.87;77.13
74403;BME280;62837;51.082;13.744;2022-12-24T05:21:45;99458.27;;;9.85;77.75
74403;BME280;62837;51.082;13.744;2022-12-24T05:24:37;99469.38;;;9.82;77.63
74403;BME280;62837;51.082;13.744;2022-12-24T05:27:25;99478.15;;;9.82;77.61
74403;BME280;62837;51.082;13.744;2022-12-24T05:29:56;99482.78;;;9.80;78.09
74403;BME280;62837;51.082;13.744;2022-12-24T05:32:27;99484.59;;;9.78;78.24
74403;BME280;62837;51.082;13.744;2022-12-24T05:34:58;99483.94;;;9.75;78.30
74403;BME280;62837;51.082;13.744;2022-12-24T05:37:28;99482.56;;;9.73;78.47
74403;BME280;62837;51.082;13.744;2022-12-24T05:39:59;99487.23;;;9.71;78.54
74403;BME280;62837;51.082;13.744;2022-12-24T05:42:30;99483.83;;;9.69;78.63
74403;BME280;62837;51.082;13.744;2022-12-24T05:45:00;99488.21;;;9.67;78.66
74403;BME280;62837;51.082;13.744;2022-12-24T05:47:33;99491.52;;;9.65;78.52
74403;BME280;62837;51.082;13.744;2022-12-24T05:50:12;99501.55;;;9.63;78.47
74403;BME280;62837;51.082;13.744;2022-12-24T05:52:43;99498.60;;;9.64;78.45
74403;BME280;62837;51.082;13.744;2022-12-24T05:55:13;99499.58;;;9.62;78.03
74403;BME280;62837;51.082;13.744;2022-12-24T05:57:44;99505.70;;;9.61;77.94
74403;BME280;62837;51.082;13.744;2022-12-24T06:00:17;99511.39;;;9.62;77.51
74403;BME280;62837;51.082;13.744;2022-12-24T06:02:48;99508.14;;;9.63;77.35
74403;BME280;62837;51.082;13.744;2022-12-24T06:05:19;99508.47;;;9.63;76.76
74403;BME280;62837;51.082;13.744;2022-12-24T06:07:49;99514.58;;;9.64;76.70
74403;BME280;62837;51.082;13.744;2022-12-24T06:10:20;99521.11;;;9.65;76.64
74403;BME280;62837;51.082;13.744;2022-12-24T06:12:51;99528.41;;;9.66;76.65
74403;BME280;62837;51.082;13.744;2022-12-24T06:15:21;99534.95;;;9.65;76.86
74403;BME280;62837;51.082;13.744;2022-12-24T06:17:52;99545.70;;;9.63;76.55
74403;BME280;62837;51.082;13.744;2022-12-24T06:20:23;99552.50;;;9.63;76.64
74403;BME280;62837;51.082;13.744;2022-12-24T06:22:54;99559.80;;;9.62;76.72
74403;BME280;62837;51.082;13.744;2022-12-24T06:25:24;99558.32;;;9.59;76.74
74403;BME280;62837;51.082;13.744;2022-12-24T06:27:55;99560.61;;;9.57;76.55
74403;BME280;62837;51.082;13.744;2022-12-24T06:30:26;99565.58;;;9.56;76.68
74403;BME280;62837;51.082;13.744;2022-12-24T06:32:57;99572.20;;;9.55;76.78
74403;BME280;62837;51.082;13.744;2022-12-24T06:35:27;99577.19;;;9.53;76.90
74403;BME280;62837;51.082;13.744;2022-12-24T06:38:00;99581.63;;;9.52;76.84
74403;BME280;62837;51.082;13.744;2022-12-24T06:40:31;99582.13;;;9.50;76.84
74403;BME280;62837;51.082;13.744;2022-12-24T06:43:01;99582.02;;;9.49;76.69
74403;BME280;62837;51.082;13.744;2022-12-24T06:45:32;99584.81;;;9.48;76.83
74403;BME280;62837;51.082;13.744;2022-12-24T06:48:03;99584.80;;;9.47;76.28
74403;BME280;62837;51.082;13.744;2022-12-24T06:50:34;99583.15;;;9.47;76.15
74403;BME280;62837;51.082;13.744;2022-12-24T06:53:05;99588.54;;;9.48;75.26
74403;BME280;62837;51.082;13.744;2022-12-24T06:55:36;99598.33;;;9.50;74.93
74403;BME280;62837;51.082;13.744;2022-12-24T06:58:07;99605.63;;;9.53;74.71
74403;BME280;62837;51.082;13.744;2022-12-24T07:00:38;99609.74;;;9.54;74.69
74403;BME280;62837;51.082;13.744;2022-12-24T07:03:09;99616.05;;;9.55;74.17
74403;BME280;62837;51.082;13.744;2022-12-24T07:05:41;99621.60;;;9.57;73.53
74403;BME280;62837;51.082;13.744;2022-12-24T07:08:12;99624.63;;;9.58;72.94
74403;BME280;62837;51.082;13.744;2022-12-24T07:10:42;99635.07;;;9.61;73.14
74403;BME280;62837;51.082;13.744;2022-12-24T07:13:22;99631.49;;;9.62;73.21
74403;BME280;62837;51.082;13.744;2022-12-24T07:15:58;99635.56;;;9.62;72.39
74403;BME280;62837;51.082;13.744;2022-12-24T07:18:29;99639.30;;;9.64;72.54
74403;BME280;62837;51.082;13.744;2022-12-24T07:21:01;99644.63;;;9.65;72.56
74403;BME280;62837;51.082;13.744;2022-12-24T07:23:32;99653.96;;;9.65;72.11
74403;BME280;62837;51.082;13.744;2022-12-24T07:26:04;99660.77;;;9.66;71.97
74403;BME280;62837;51.082;13.744;2022-12-24T07:28:35;99661.10;;;9.66;71.79
74403;BME280;62837;51.082;13.744;2022-12-24T07:31:06;99670.88;;;9.66;71.38
74403;BME280;62837;51.082;13.744;2022-12-24T07:33:36;99671.65;;;9.66;71.16
74403;BME280;62837;51.082;13.744;2022-12-24T07:36:09;99668.78;;;9.67;70.88
74403;BME280;62837;51.082;13.744;2022-12-24T07:38:43;99675.65;;;9.67;71.03
74403;BME280;62837;51.082;13.744;2022-12-24T07:41:14;99681.25;;;9.67;70.96
74403;BME280;62837;51.082;13.744;2022-12-24T07:43:45;99685.80;;;9.67;70.83
74403;BME280;62837;51.082;13.744;2022-12-24T07:46:16;99689.54;;;9.66;70.77
74403;BME280;62837;51.082;13.744;2022-12-24T07:48:47;99699.04;;;9.67;70.26
74403;BME280;62837;51.082;13.744;2022-12-24T07:51:17;99701.52;;;9.66;70.24
74403;BME280;62837;51.082;13.744;2022-12-24T07:53:48;99706.34;;;9.67;70.05
74403;BME280;62837;51.082;13.744;2022-12-24T07:56:19;99703.70;;;9.67;70.92
74403;BME280;62837;51.082;13.744;2022-12-24T07:58:50;99704.30;;;9.68;70.53
74403;BME280;62837;51.082;13.744;2022-12-24T08:01:21;99709.46;;;9.67;70.25
74403;BME280;62837;51.082;13.744;2022-12-24T08:03:52;99711.94;;;9.67;70.23
74403;BME280;62837;51.082;13.744;2022-12-24T08:06:24;99713.41;;;9.68;70.07
74403;BME280;62837;51.082;13.744;2022-12-24T08:08:55;99716.92;;;9.68;70.10
74403;BME280;62837;51.082;13.744;2022-12-24T08:11:25;99722.48;;;9.67;70.36
74403;BME280;62837;51.082;13.744;2022-12-24T08:13:56;99726.43;;;9.67;70.58
74403;BME280;62837;51.082;13.744;2022-12-24T08:16:27;99730.37;;;9.67;70.89
74403;BME280;62837;51.082;13.744;2022-12-24T08:18:57;99733.62;;;9.68;71.19
74403;BME280;62837;51.082;13.744;2022-12-24T08:21:28;99740.98;;;9.67;71.36
74403;BME280;62837;51.082;13.744;2022-12-24T08:23:59;99741.52;;;9.66;71.69
74403;BME280;62837;51.082;13.744;2022-12-24T08:26:30;99748.77;;;9.67;71.97
74403;BME280;62837;51.082;13.744;2022-12-24T08:29:02;99753.73;;;9.66;72.26
74403;BME280;62837;51.082;13.744;2022-12-24T08:31:31;99760.09;;;9.66;72.24
74403;BME280;62837;51.082;13.744;2022-12-24T08:34:05;99759.27;;;9.66;72.38
74403;BME280;62837;51.082;13.744;2022-12-24T08:36:37;99770.90;;;9.65;72.50
74403;BME280;62837;51.082;13.744;2022-12-24T08:39:08;99776.92;;;9.64;72.58
74403;BME280;62837;51.082;13.744;2022-12-24T08:41:39;99784.60;;;9.63;72.62
74403;BME280;62837;51.082;13.744;2022-12-24T08:44:10;99783.72;;;9.62;72.41
74403;BME280;62837;51.082;13.744;2022-12-24T08:46:40;99789.70;;;9.63;72.53
74403;BME280;62837;51.082;13.744;2022-12-24T08:49:11;99798.05;;;9.63;72.43
74403;BME280;62837;51.082;13.744;2022-12-24T08:51:42;99804.87;;;9.64;72.21
74403;BME280;62837;51.082;13.744;2022-12-24T08:54:13;99808.79;;;9.66;72.39
74403;BME280;62837;51.082;13.744;2022-12-24T08:56:43;99811.09;;;9.67;72.50
74403;BME280;62837;51.082;13.744;2022-12-24T08:59:14;99820.38;;;9.70;72.30
74403;BME280;62837;51.082;13.744;2022-12-24T09:01:45;99822.98;;;9.71;72.41
74403;BME280;62837;51.082;13.744;2022-12-24T09:04:16;99825.66;;;9.74;72.30
74403;BME280;62837;51.082;13.744;2022-12-24T09:06:47;99830.63;;;9.76;72.17
74403;BME280;62837;51.082;13.744;2022-12-24T09:09:18;99832.39;;;9.78;71.73
74403;BME280;62837;51.082;13.744;2022-12-24T09:11:49;99831.30;;;9.78;71.29
74403;BME280;62837;51.082;13.744;2022-12-24T09:14:19;99836.96;;;9.82;71.12
74403;BME280;62837;51.082;13.744;2022-12-24T09:16:50;99836.94;;;9.86;70.74
74403;BME280;62837;51.082;13.744;2022-12-24T09:19:21;99836.80;;;9.89;70.59
74403;BME280;62837;51.082;13.744;2022-12-24T09:21:52;99840.36;;;9.92;70.58
74403;BME280;62837;51.082;13.744;2022-12-24T09:24:23;99845.16;;;9.95;70.27
74403;BME280;62837;51.082;13.744;2022-12-24T09:26:53;99847.25;;;9.98;70.17
74403;BME280;62837;51.082;13.744;2022-12-24T09:29:26;99850.17;;;10.00;70.01
74403;BME280;62837;51.082;13.744;2022-12-24T09:31:57;99856.98;;;10.03;69.66
74403;BME280;62837;51.082;13.744;2022-12-24T09:34:28;99856.67;;;10.06;69.56
74403;BME280;62837;51.082;13.744;2022-12-24T09:36:59;99861.25;;;10.09;69.31
74403;BME280;62837;51.082;13.744;2022-12-24T09:39:31;99865.05;;;10.12;69.18
74403;BME280;62837;51.082;13.744;2022-12-24T09:42:10;99869.80;;;10.14;68.92
74403;BME280;62837;51.082;13.744;2022-12-24T09:44:48;99872.80;;;10.17;68.52
74403;BME280;62837;51.082;13.744;2022-12-24T09:47:26;99879.58;;;10.20;67.86
74403;BME280;62837;51.082;13.744;2022-12-24T09:50:00;99879.88;;;10.29;67.77
74403;BME280;62837;51.082;13.744;2022-12-24T09:52:35;99880.89;;;10.37;67.97
74403;BME280;62837;51.082;13.744;2022-12-24T09:55:24;99887.66;;;10.42;67.30
74403;BME280;62837;51.082;13.744;2022-12-24T09:57:57;99883.55;;;10.45;67.11
74403;BME280;62837;51.082;13.744;2022-12-24T10:00:31;99886.11;;;10.52;66.73
74403;BME280;62837;51.082;13.744;2022-12-24T10:03:10;99898.40;;;10.71;66.72
74403;BME280;62837;51.082;13.744;2022-12-24T10:05:46;99897.80;;;10.96;65.50
74403;BME280;62837;51.082;13.744;2022-12-24T10:08:27;99901.05;;;11.14;65.06
74403;BME280;62837;51.082;13.744;2022-12-24T10:11:05;99902.11;;;11.32;64.53
74403;BME280;62837;51.082;13.744;2022-12-24T10:13:47;99905.84;;;11.44;64.51
74403;BME280;62837;51.082;13.744;2022-12-24T10:16:25;99907.52;;;11.59;64.53
74403;BME280;62837;51.082;13.744;2022-12-24T10:18:59;99910.77;;;11.73;64.45
74403;BME280;62837;51.082;13.744;2022-12-24T10:21:39;99917.88;;;11.81;63.99
74403;BME280;62837;51.082;13.744;2022-12-24T10:24:16;99915.98;;;11.87;63.53
74403;BME280;62837;51.082;13.744;2022-12-24T10:26:54;99923.77;;;11.79;63.17
74403;BME280;62837;51.082;13.744;2022-12-24T10:29:29;99922.95;;;11.65;63.25
74403;BME280;62837;51.082;13.744;2022-12-24T10:32:12;99924.17;;;11.54;63.22
74403;BME280;62837;51.082;13.744;2022-12-24T10:34:50;99928.34;;;11.58;63.76
74403;BME280;62837;51.082;13.744;2022-12-24T10:37:24;99930.05;;;11.62;63.73
74403;BME280;62837;51.082;13.744;2022-12-24T10:39:59;99929.27;;;11.67;63.97
74403;BME280;62837;51.082;13.744;2022-12-24T10:42:37;99933.63;;;11.74;64.28
74403;BME280;62837;51.082;13.744;2022-12-24T10:45:22;99933.24;;;11.80;63.45
74403;BME280;62837;51.082;13.744;2022-12-24T10:47:56;99931.76;;;11.85;63.49
74403;BME280;62837;51.082;13.744;2022-12-24T10:50:31;99929.53;;;11.91;62.88
74403;BME280;62837;51.082;13.744;2022-12-24T10:53:13;99940.33;;;11.96;62.88
74403;BME280;62837;51.082;13.744;2022-12-24T10:55:47;99944.19;;;11.95;62.73
74403;BME280;62837;51.082;13.744;2022-12-24T10:58:19;99942.14;;;11.92;62.64
74403;BME280;62837;51.082;13.744;2022-12-24T11:00:53;99944.77;;;11.88;62.38
74403;BME280;62837;51.082;13.744;2022-12-24T11:03:29;99950.38;;;11.78;62.79
74403;BME280;62837;51.082;13.744;2022-12-24T11:06:06;99950.48;;;11.70;63.09
74403;BME280;62837;51.082;13.744;2022-12-24T11:08:39;99954.49;;;11.59;63.57
74403;BME280;62837;51.082;13.744;2022-12-24T11:11:10;99960.17;;;11.54;63.96
74403;BME280;62837;51.082;13.744;2022-12-24T11:13:44;99964.64;;;11.48;63.96
74403;BME280;62837;51.082;13.744;2022-12-24T11:16:20;99967.23;;;11.44;64.42
74403;BME280;62837;51.082;13.744;2022-12-24T11:18:52;99964.09;;;11.39;64.62
74403;BME280;62837;51.082;13.744;2022-12-24T11:21:26;99967.06;;;11.34;65.09
74403;BME280;62837;51.082;13.744;2022-12-24T11:23:59;99969.64;;;11.29;65.42
74403;BME280;62837;51.082;13.744;2022-12-24T11:26:31;99974.91;;;11.23;65.45
74403;BME280;62837;51.082;13.744;2022-12-24T11:29:19;99980.52;;;11.15;65.64
74403;BME280;62837;51.082;13.744;2022-12-24T11:31:50;99982.60;;;11.08;66.07
74403;BME280;62837;51.082;13.744;2022-12-24T11:34:27;99971.19;;;10.97;66.19
74403;BME280;62837;51.082;13.744;2022-12-24T11:37:13;99987.05;;;10.98;66.18
74403;BME280;62837;51.082;13.744;2022-12-24T11:39:48;99998.09;;;10.95;66.64
74403;BME280;62837;51.082;13.744;2022-12-24T11:42:28;100003.25;;;10.93;66.94
74403;BME280;62837;51.082;13.744;2022-12-24T11:45:02;100006.48;;;10.92;67.42
74403;BME280;62837;51.082;13.744;2022-12-24T11:47:35;100006.10;;;10.91;67.49
74403;BME280;62837;51.082;13.744;2022-12-24T11:50:26;100005.66;;;10.88;67.85
74403;BME280;62837;51.082;13.744;2022-12-24T11:52:58;100008.14;;;10.86;68.21
74403;BME280;62837;51.082;13.744;2022-12-24T11:55:41;100016.92;;;10.87;68.27
74403;BME280;62837;51.082;13.744;2022-12-24T11:58:20;100020.02;;;10.88;68.59
74403;BME280;62837;51.082;13.744;2022-12-24T12:01:02;100020.80;;;10.91;68.81
74403;BME280;62837;51.082;13.744;2022-12-24T12:03:46;100021.74;;;10.94;68.97
74403;BME280;62837;51.082;13.744;2022-12-24T12:06:27;100022.58;;;10.99;68.93
74403;BME280;62837;51.082;13.744;2022-12-24T12:09:04;100031.95;;;11.00;69.04
74403;BME280;62837;51.082;13.744;2022-12-24T12:14:17;100028.88;;;11.05;68.93
74403;BME280;62837;51.082;13.744;2022-12-24T12:16:57;100028.98;;;11.05;68.64
74403;BME280;62837;51.082;13.744;2022-12-24T12:19:38;100028.59;;;11.03;68.74
74403;BME280;62837;51.082;13.744;2022-12-24T12:22:21;100032.48;;;10.99;68.56
74403;BME280;62837;51.082;13.744;2022-12-24T12:24:55;100034.99;;;10.94;68.58
74403;BME280;62837;51.082;13.744;2022-12-24T12:27:33;100037.02;;;10.89;68.85
74403;BME280;62837;51.082;13.744;2022-12-24T12:30:14;100035.73;;;10.86;68.98
74403;BME280;62837;51.082;13.744;2022-12-24T12:32:50;100038.36;;;10.82;69.23
74403;BME280;62837;51.082;13.744;2022-12-24T12:35:25;100035.98;;;10.78;69.34
74403;BME280;62837;51.082;13.744;2022-12-24T12:38:02;100036.31;;;10.76;69.54
74403;BME280;62837;51.082;13.744;2022-12-24T12:40:58;100035.21;;;10.74;69.74
74403;BME280;62837;51.082;13.744;2022-12-24T12:44:06;100034.86;;;10.73;69.89
74403;BME280;62837;51.082;13.744;2022-12-24T12:46:49;100037.94;;;10.72;70.13
74403;BME280;62837;51.082;13.744;2022-12-24T12:49:38;100038.52;;;10.68;70.26
74403;BME280;62837;51.082;13.744;2022-12-24T12:52:21;100040.16;;;10.64;70.46
74403;BME280;62837;51.082;13.744;2022-12-24T12:55:09;100042.23;;;10.60;70.18
74403;BME280;62837;51.082;13.744;2022-12-24T12:57:55;100046.45;;;10.58;70.37
74403;BME280;62837;51.082;13.744;2022-12-24T13:00:32;100046.84;;;10.58;70.54
74403;BME280;62837;51.082;13.744;2022-12-24T13:03:27;100042.31;;;10.57;70.75
74403;BME280;62837;51.082;13.744;2022-12-24T13:06:26;100042.98;;;10.58;71.23
74403;BME280;62837;51.082;13.744;2022-12-24T13:12:37;100045.20;;;10.59;71.03
74403;BME280;62837;51.082;13.744;2022-12-24T13:15:31;100050.59;;;10.61;71.38
74403;BME280;62837;51.082;13.744;2022-12-24T13:18:27;100053.63;;;10.63;71.29
74403;BME280;62837;51.082;13.744;2022-12-24T13:21:11;100051.61;;;10.70;71.36
74403;BME280;62837;51.082;13.744;2022-12-24T13:23:43;100054.02;;;10.76;71.05
74403;BME280;62837;51.082;13.744;2022-12-24T13:26:15;100053.95;;;10.86;71.35
74403;BME280;62837;51.082;13.744;2022-12-24T13:28:45;100055.14;;;10.96;71.18
74403;BME280;62837;51.082;13.744;2022-12-24T13:31:29;100054.17;;;11.05;70.83
74403;BME280;62837;51.082;13.744;2022-12-24T13:34:01;100049.64;;;11.15;70.55
74403;BME280;62837;51.082;13.744;2022-12-24T13:37:02;100052.59;;;11.24;70.45
74403;BME280;62837;51.082;13.744;2022-12-24T13:42:50;100058.15;;;11.28;69.40